CheckWX is a tool to help pilots better visualize weather data.  It is not intended as a substitute for an official pre-flight weather briefing.

13:22:19 UTC

KELY METAR
Ely Arpt / Yelland Field / Airport
Ely, Nevada, USA
Current

29 mins ago

KELY 131253Z AUTO 12003KT 10SM OVC110 02/M03 A3022 RMK AO2 SLP225 T00171033
Observed
Dec-13 @ 12:53 UTC
Wind
  • 120° at 3 KTS
Visibility
10 SM
Flight Rules
VFR
Cloud Levels
  • Overcast at 11,000' AGL
Temperature
C / 36°F
Dewpoint
-3°C / 27°F
Humidity
70%
Altimeter
30.22" Hg
Pressure
1023.42 hPa
Previous

1 hour ago

KELY 131153Z AUTO 28006KT 10SM OVC110 01/M03 A3023 RMK AO2 SLP217 T00111033 10044 20011 58004
Observed
Dec-13 @ 11:53 UTC
Wind
  • 280° at 6 KTS
Visibility
10 SM
Flight Rules
VFR
Cloud Levels
  • Overcast at 11,000' AGL
Temperature
C / 34°F
Dewpoint
-3°C / 27°F
Humidity
75%
Altimeter
30.23" Hg
Pressure
1023.72 hPa
Previous

2 hours ago

KELY 131053Z AUTO 27004KT 10SM OVC100 02/M03 A3024 RMK AO2 SLP215 T00171028
Observed
Dec-13 @ 10:53 UTC
Wind
  • 270° at 4 KTS
Visibility
10 SM
Flight Rules
VFR
Cloud Levels
  • Overcast at 10,000' AGL
Temperature
C / 36°F
Dewpoint
-3°C / 27°F
Humidity
70%
Altimeter
30.24" Hg
Pressure
1024.02 hPa